Time;durP1;ratioP1;P1;durP2;ratioP2;P2;SDS_P1;SDS_P2;PMS_P1;PMS_P2;Temp;Humidity;BMP_temperature;BMP_pressure;BME280_temperature;BME280_humidity;BME280_pressure;Samples;Min_cycle;Max_cycle;Signal;HPM_P1;HPM_P2
2022/07/29 00:02:04;;;;;;;1.92;0.63;;;15.00;99.90;;;;;;5040546;28;20390;-69
2022/07/29 00:04:30;;;;;;;2.08;0.80;;;15.00;99.90;;;;;;5065757;28;20041;-69
2022/07/29 00:06:55;;;;;;;2.42;0.80;;;15.00;99.90;;;;;;5048928;28;20044;-70
2022/07/29 00:09:21;;;;;;;3.03;0.77;;;15.00;99.90;;;;;;5046999;28;20129;-70
2022/07/29 00:11:47;;;;;;;3.85;1.02;;;15.10;99.90;;;;;;5040044;28;20515;-70
2022/07/29 00:14:13;;;;;;;2.72;0.90;;;15.10;99.90;;;;;;5026776;28;20078;-69
2022/07/29 00:16:39;;;;;;;1.65;0.60;;;15.10;99.90;;;;;;5013378;28;20057;-69
2022/07/29 00:19:05;;;;;;;3.40;0.80;;;15.10;99.90;;;;;;5030342;28;20106;-69
2022/07/29 00:21:31;;;;;;;2.97;0.70;;;15.10;99.90;;;;;;5029075;28;20055;-69
2022/07/29 00:23:56;;;;;;;2.53;0.85;;;15.10;99.90;;;;;;5044731;28;20045;-69
2022/07/29 00:26:22;;;;;;;3.45;0.70;;;15.00;99.90;;;;;;5029804;28;20055;-69
2022/07/29 00:28:48;;;;;;;4.43;0.60;;;15.10;99.90;;;;;;5048791;28;20483;-69
2022/07/29 00:31:14;;;;;;;2.05;0.73;;;15.00;99.90;;;;;;5042713;28;20040;-69
2022/07/29 00:33:40;;;;;;;1.58;0.77;;;15.10;99.90;;;;;;5036782;28;20041;-69
2022/07/29 00:36:06;;;;;;;4.95;1.60;;;15.10;99.90;;;;;;5048608;28;20062;-69
2022/07/29 00:38:32;;;;;;;2.08;0.80;;;15.10;99.90;;;;;;5044416;28;20055;-69
2022/07/29 00:40:58;;;;;;;0.88;0.50;;;15.10;99.90;;;;;;5067392;28;20119;-69
2022/07/29 00:43:23;;;;;;;4.82;1.10;;;15.10;99.90;;;;;;5043597;28;20048;-69
2022/07/29 00:45:49;;;;;;;5.75;0.63;;;15.10;99.90;;;;;;5045519;28;20080;-69
2022/07/29 00:48:15;;;;;;;1.38;0.70;;;15.10;99.90;;;;;;5066009;28;20045;-69
2022/07/29 00:50:40;;;;;;;7.40;1.10;;;15.10;99.90;;;;;;5045185;28;20040;-69
2022/07/29 00:53:07;;;;;;;3.47;0.68;;;15.20;99.90;;;;;;5043589;28;20650;-69
2022/07/29 00:55:33;;;;;;;5.18;1.27;;;15.20;99.90;;;;;;5067173;28;20087;-69
2022/07/29 00:58:00;;;;;;;2.53;0.75;;;15.20;99.90;;;;;;5044413;28;20528;-69
2022/07/29 01:00:28;;;;;;;6.30;0.70;;;15.20;99.90;;;;;;5065764;28;20059;-69
2022/07/29 01:02:53;;;;;;;3.25;0.73;;;15.20;99.90;;;;;;5063889;28;20499;-69
2022/07/29 01:05:24;;;;;;;2.92;1.00;;;15.20;99.90;;;;;;5065831;28;20056;-69
2022/07/29 01:07:53;;;;;;;4.53;0.98;;;15.20;99.90;;;;;;5067513;28;20487;-69
2022/07/29 01:10:21;;;;;;;2.22;0.57;;;15.30;99.90;;;;;;5030717;28;20410;-69
2022/07/29 01:12:49;;;;;;;1.50;0.70;;;15.30;99.90;;;;;;5035858;28;20403;-69
2022/07/29 01:15:15;;;;;;;2.58;0.75;;;15.20;99.90;;;;;;5046947;28;20083;-69
2022/07/29 01:17:53;;;;;;;3.33;0.85;;;15.30;99.90;;;;;;5042699;28;20095;-69
2022/07/29 01:20:21;;;;;;;4.90;1.02;;;15.30;99.90;;;;;;5047676;28;20048;-70
2022/07/29 01:23:17;;;;;;;1.95;0.98;;;15.30;99.90;;;;;;5027974;28;20064;-69
2022/07/29 01:25:46;;;;;;;2.22;0.82;;;15.30;99.90;;;;;;5041039;28;20044;-69
2022/07/29 01:28:36;;;;;;;2.67;0.70;;;15.30;99.90;;;;;;5053257;28;20462;-69
2022/07/29 01:31:04;;;;;;;5.85;0.80;;;15.30;99.90;;;;;;5047017;28;20090;-69
2022/07/29 01:33:51;;;;;;;1.35;0.60;;;15.30;99.90;;;;;;5047054;28;20045;-69
2022/07/29 01:36:32;;;;;;;2.90;1.08;;;15.30;99.90;;;;;;5045746;28;20139;-68
2022/07/29 01:39:11;;;;;;;7.70;0.93;;;15.30;99.90;;;;;;5051472;28;20075;-69
2022/07/29 01:41:47;;;;;;;6.15;1.65;;;15.20;99.90;;;;;;5047388;28;20076;-70
2022/07/29 01:44:26;;;;;;;2.88;0.80;;;15.30;99.90;;;;;;5035698;28;20063;-70
2022/07/29 01:46:58;;;;;;;2.75;0.70;;;15.20;99.90;;;;;;5029184;28;20471;-69
2022/07/29 01:49:28;;;;;;;1.65;0.80;;;15.30;99.90;;;;;;5039417;28;20045;-69
2022/07/29 01:52:23;;;;;;;2.53;0.77;;;15.20;99.90;;;;;;5031731;28;20120;-69
2022/07/29 01:54:58;;;;;;;2.67;0.85;;;15.30;99.90;;;;;;5006051;28;20454;-69
2022/07/29 01:57:31;;;;;;;3.13;0.80;;;15.20;99.90;;;;;;5055446;28;20466;-70
2022/07/29 02:00:00;;;;;;;2.75;0.80;;;15.20;99.90;;;;;;5067209;28;20429;-69
2022/07/29 02:02:27;;;;;;;2.63;0.82;;;15.20;99.90;;;;;;5041713;28;20124;-69
2022/07/29 02:04:55;;;;;;;2.65;0.68;;;15.10;99.90;;;;;;5065978;28;20036;-69
2022/07/29 02:07:23;;;;;;;3.10;0.70;;;15.10;99.90;;;;;;5053152;28;20074;-69
2022/07/29 02:09:50;;;;;;;3.60;0.90;;;15.10;99.90;;;;;;5038476;28;20045;-69
2022/07/29 02:12:20;;;;;;;2.20;0.70;;;15.10;99.90;;;;;;5047003;28;20120;-69
2022/07/29 02:14:48;;;;;;;;;;;15.10;99.90;;;;;;5048933;28;20055;-68
2022/07/29 02:17:27;;;;;;;2.00;0.90;;;15.10;99.90;;;;;;5035878;28;19966;-69
2022/07/29 02:19:59;;;;;;;5.35;0.93;;;15.10;99.90;;;;;;5045371;28;20045;-69
2022/07/29 02:22:28;;;;;;;2.70;0.82;;;15.10;99.90;;;;;;5027828;28;20107;-69
2022/07/29 02:24:55;;;;;;;1.02;0.80;;;15.10;99.90;;;;;;5029658;28;20506;-68
2022/07/29 02:27:22;;;;;;;3.20;1.00;;;15.10;99.90;;;;;;5034223;28;20049;-69
2022/07/29 02:29:53;;;;;;;6.60;1.10;;;15.00;99.90;;;;;;5046265;28;20132;-69
2022/07/29 02:32:20;;;;;;;1.67;0.90;;;15.10;99.90;;;;;;5039784;28;20526;-70
2022/07/29 02:34:47;;;;;;;3.83;0.90;;;15.00;99.90;;;;;;5048035;28;20040;-69
2022/07/29 02:37:15;;;;;;;2.10;0.95;;;15.00;99.90;;;;;;5047342;28;20064;-69
2022/07/29 02:39:43;;;;;;;3.03;0.88;;;14.90;99.90;;;;;;5039803;28;20489;-69
2022/07/29 02:42:13;;;;;;;3.13;1.10;;;14.90;99.90;;;;;;5029189;28;20440;-69
2022/07/29 02:44:39;;;;;;;3.20;0.93;;;14.90;99.90;;;;;;5025725;28;20061;-69
2022/07/29 02:47:29;;;;;;;1.55;0.90;;;14.90;99.90;;;;;;5049728;28;20090;-69
2022/07/29 02:50:21;;;;;;;;;;;14.90;99.90;;;;;;5027549;28;20049;-70
2022/07/29 02:53:11;;;;;;;7.47;1.27;;;14.80;99.90;;;;;;5040091;28;20027;-69
2022/07/29 02:55:42;;;;;;;3.00;1.10;;;14.80;99.90;;;;;;5028335;28;20048;-69
2022/07/29 02:58:13;;;;;;;1.98;0.90;;;14.80;99.90;;;;;;5046802;28;20053;-69
2022/07/29 03:00:41;;;;;;;4.90;1.08;;;14.80;99.90;;;;;;5046416;28;20091;-69
2022/07/29 03:03:14;;;;;;;5.30;1.42;;;14.80;99.90;;;;;;5051800;28;20103;-69
2022/07/29 03:05:40;;;;;;;1.83;0.77;;;14.80;99.90;;;;;;5050744;28;20485;-69
2022/07/29 03:08:09;;;;;;;5.80;2.00;;;14.70;99.90;;;;;;5069240;28;20045;-69
2022/07/29 03:10:39;;;;;;;5.03;0.88;;;14.70;99.90;;;;;;5049194;28;20059;-69
2022/07/29 03:13:05;;;;;;;2.42;0.73;;;14.70;99.90;;;;;;5050072;28;20577;-69
2022/07/29 03:15:32;;;;;;;3.20;1.10;;;14.70;99.90;;;;;;5030159;28;20488;-69
2022/07/29 03:17:59;;;;;;;2.20;1.00;;;14.80;99.90;;;;;;5038490;28;20048;-69
2022/07/29 03:20:25;;;;;;;5.93;1.27;;;14.80;99.90;;;;;;5057195;28;20073;-69
2022/07/29 03:22:51;;;;;;;2.20;0.82;;;14.70;99.90;;;;;;5048706;28;20048;-69
2022/07/29 03:25:19;;;;;;;3.03;0.90;;;14.70;99.90;;;;;;5060079;28;20048;-69
2022/07/29 03:27:46;;;;;;;1.60;0.90;;;14.70;99.90;;;;;;5048445;28;20094;-69
2022/07/29 03:30:12;;;;;;;2.22;1.00;;;14.70;99.90;;;;;;5026848;28;20867;-69
2022/07/29 03:32:39;;;;;;;3.30;1.10;;;14.70;99.90;;;;;;5038616;28;20087;-69
2022/07/29 03:35:06;;;;;;;2.17;0.95;;;14.70;99.90;;;;;;5063138;28;20057;-69
2022/07/29 03:37:33;;;;;;;0.88;0.70;;;14.70;99.90;;;;;;5043220;28;20060;-69
2022/07/29 03:40:01;;;;;;;6.07;0.98;;;14.70;99.90;;;;;;5063344;28;20275;-69
2022/07/29 03:42:31;;;;;;;3.83;1.30;;;14.70;99.90;;;;;;5031631;28;20663;-69
2022/07/29 03:44:59;;;;;;;2.78;0.85;;;14.70;99.90;;;;;;5047538;28;20040;-69
2022/07/29 03:47:28;;;;;;;5.88;1.10;;;14.70;99.90;;;;;;5031951;28;20052;-70
2022/07/29 03:49:59;;;;;;;;;;;14.70;99.90;;;;;;5043612;28;20460;-69
2022/07/29 03:52:25;;;;;;;2.10;0.77;;;14.70;99.90;;;;;;5031854;28;19924;-69
2022/07/29 03:54:52;;;;;;;5.30;1.30;;;14.70;99.90;;;;;;5013766;28;20053;-69
2022/07/29 03:57:20;;;;;;;7.07;1.13;;;14.70;99.90;;;;;;5053575;28;20462;-69
2022/07/29 03:59:47;;;;;;;3.30;0.90;;;14.70;99.90;;;;;;5048953;28;20096;-68
2022/07/29 04:02:13;;;;;;;5.03;1.10;;;14.70;99.90;;;;;;5035807;28;20072;-68
2022/07/29 04:04:38;;;;;;;3.05;0.93;;;14.80;99.90;;;;;;5048970;28;20402;-68
2022/07/29 04:07:05;;;;;;;2.70;1.10;;;14.80;99.90;;;;;;5033032;28;20045;-69
2022/07/29 04:09:31;;;;;;;2.67;0.82;;;14.80;99.90;;;;;;5039807;28;20044;-69
2022/07/29 04:11:56;;;;;;;2.25;0.90;;;14.80;99.90;;;;;;5021136;28;20045;-69
2022/07/29 04:14:22;;;;;;;4.57;1.35;;;14.80;99.90;;;;;;5030426;28;20040;-69
2022/07/29 04:16:48;;;;;;;6.97;1.15;;;14.80;99.90;;;;;;5022767;28;20052;-69
2022/07/29 04:19:13;;;;;;;3.00;0.98;;;14.80;99.90;;;;;;5050898;28;20052;-69
2022/07/29 04:21:40;;;;;;;9.15;1.13;;;14.80;99.90;;;;;;5038805;28;20487;-69
2022/07/29 04:24:07;;;;;;;8.07;1.45;;;14.80;99.90;;;;;;5052405;28;20553;-69
2022/07/29 04:26:33;;;;;;;2.80;1.08;;;14.80;99.90;;;;;;5048713;28;20083;-69
2022/07/29 04:28:59;;;;;;;2.08;0.77;;;14.80;99.90;;;;;;5029131;28;20118;-69
2022/07/29 04:31:25;;;;;;;2.75;0.80;;;14.80;99.90;;;;;;5059067;28;20442;-69
2022/07/29 04:33:52;;;;;;;4.20;1.15;;;14.80;99.90;;;;;;5047166;28;20044;-69
2022/07/29 04:36:17;;;;;;;6.47;1.10;;;14.80;99.90;;;;;;5047591;28;20044;-69
2022/07/29 04:38:43;;;;;;;2.83;0.80;;;14.80;99.90;;;;;;5048368;28;20049;-69
2022/07/29 04:41:09;;;;;;;3.25;0.90;;;14.80;99.90;;;;;;5037802;28;20041;-69
2022/07/29 04:43:35;;;;;;;1.88;1.00;;;14.80;99.90;;;;;;5048238;28;20063;-68
2022/07/29 04:46:03;;;;;;;4.57;1.08;;;14.80;99.90;;;;;;5046463;28;20049;-69
2022/07/29 04:48:29;;;;;;;2.00;1.02;;;14.80;99.90;;;;;;5049439;28;20441;-69
2022/07/29 04:50:56;;;;;;;2.05;1.10;;;14.80;99.90;;;;;;5066423;28;20127;-68
2022/07/29 04:53:22;;;;;;;7.45;1.35;;;14.80;99.90;;;;;;5047509;28;20051;-69
2022/07/29 04:55:48;;;;;;;4.70;0.95;;;14.90;99.90;;;;;;5032658;28;20048;-69
2022/07/29 04:58:14;;;;;;;3.40;1.05;;;14.90;99.90;;;;;;5058157;28;20480;-69
2022/07/29 05:00:40;;;;;;;4.40;0.90;;;14.90;99.90;;;;;;5056910;28;20487;-69
2022/07/29 05:03:05;;;;;;;1.65;0.80;;;15.00;99.90;;;;;;5052295;28;20356;-69
2022/07/29 05:05:31;;;;;;;1.33;1.05;;;15.00;99.90;;;;;;5056694;28;20114;-68
2022/07/29 05:07:57;;;;;;;2.72;1.13;;;15.00;99.90;;;;;;5052292;28;20049;-69
2022/07/29 05:10:23;;;;;;;3.03;1.00;;;15.10;99.90;;;;;;5013583;28;20048;-69
2022/07/29 05:12:48;;;;;;;2.95;1.02;;;15.10;99.90;;;;;;5046194;28;20131;-69
2022/07/29 05:15:14;;;;;;;6.93;1.35;;;15.10;99.90;;;;;;5050260;28;20137;-69
2022/07/29 05:17:40;;;;;;;1.83;1.10;;;15.10;99.90;;;;;;5029545;28;20059;-68
2022/07/29 05:20:07;;;;;;;5.15;1.10;;;15.10;99.90;;;;;;5054859;28;20036;-69
2022/07/29 05:22:33;;;;;;;2.03;1.00;;;15.10;99.90;;;;;;5051836;28;20037;-69
2022/07/29 05:24:59;;;;;;;5.50;1.15;;;15.20;99.90;;;;;;5029821;28;20045;-68
2022/07/29 05:27:25;;;;;;;2.33;0.90;;;15.20;99.90;;;;;;5056415;28;20032;-69
2022/07/29 05:29:51;;;;;;;3.08;1.00;;;15.20;99.90;;;;;;5046425;28;20040;-69
2022/07/29 05:32:16;;;;;;;2.97;1.00;;;15.20;99.90;;;;;;5041880;28;20052;-69
2022/07/29 05:34:42;;;;;;;6.25;1.17;;;15.30;99.90;;;;;;5048774;28;20064;-69
2022/07/29 05:37:08;;;;;;;4.65;1.13;;;15.30;99.90;;;;;;5044509;28;20398;-70
2022/07/29 05:39:34;;;;;;;1.75;0.63;;;15.30;99.90;;;;;;5051871;28;20368;-68
2022/07/29 05:41:59;;;;;;;5.55;1.15;;;15.30;99.90;;;;;;5010700;28;20053;-69
2022/07/29 05:44:25;;;;;;;2.78;0.90;;;15.30;99.90;;;;;;5029264;28;20060;-69
2022/07/29 05:46:51;;;;;;;3.00;0.90;;;15.40;99.90;;;;;;5010543;28;20057;-69
2022/07/29 05:49:17;;;;;;;5.47;1.30;;;15.40;99.90;;;;;;5036969;28;20051;-69
2022/07/29 05:51:43;;;;;;;4.47;1.10;;;15.40;99.90;;;;;;5045920;28;20045;-69
2022/07/29 05:54:09;;;;;;;2.78;1.00;;;15.50;99.90;;;;;;5038056;28;20056;-69
2022/07/29 05:56:36;;;;;;;3.72;1.48;;;15.50;99.90;;;;;;5065265;28;20509;-69
2022/07/29 05:59:02;;;;;;;4.20;1.08;;;15.50;99.90;;;;;;5031674;28;20056;-70
2022/07/29 06:01:28;;;;;;;3.97;1.02;;;15.50;99.90;;;;;;5035160;28;20049;-69
2022/07/29 06:03:54;;;;;;;3.47;1.60;;;15.60;99.90;;;;;;5045149;28;20075;-69
2022/07/29 06:06:24;;;;;;;3.73;1.27;;;15.60;99.90;;;;;;5059648;28;20052;-69
2022/07/29 06:08:50;;;;;;;2.22;1.00;;;15.70;99.90;;;;;;5049212;28;20045;-69
2022/07/29 06:11:16;;;;;;;2.10;1.20;;;15.70;99.90;;;;;;5046147;28;20475;-69
2022/07/29 06:13:41;;;;;;;3.38;1.40;;;15.70;99.90;;;;;;5046671;28;20075;-69
2022/07/29 06:16:07;;;;;;;4.88;1.15;;;15.80;99.90;;;;;;5045447;28;20048;-70
2022/07/29 06:18:33;;;;;;;5.55;1.08;;;15.90;99.90;;;;;;5048746;28;20047;-69
2022/07/29 06:20:58;;;;;;;3.88;1.33;;;16.00;99.90;;;;;;5048107;28;20049;-69
2022/07/29 06:23:24;;;;;;;6.32;1.40;;;16.00;99.90;;;;;;5040936;28;20045;-70
2022/07/29 06:25:54;;;;;;;5.97;1.17;;;16.20;99.90;;;;;;5050779;28;20082;-68
2022/07/29 06:28:20;;;;;;;3.15;1.10;;;16.20;99.90;;;;;;5042092;28;20044;-69
2022/07/29 06:30:46;;;;;;;5.28;1.08;;;16.30;99.90;;;;;;5012012;28;20055;-69
2022/07/29 06:33:18;;;;;;;5.93;1.35;;;16.30;99.90;;;;;;5028704;28;20045;-69
2022/07/29 06:35:45;;;;;;;3.78;1.33;;;16.40;99.90;;;;;;5028923;28;20049;-69
2022/07/29 06:38:12;;;;;;;2.75;1.15;;;16.40;99.90;;;;;;5042778;28;20056;-69
2022/07/29 06:40:59;;;;;;;5.53;1.17;;;16.40;99.90;;;;;;5051522;28;20053;-69
2022/07/29 06:43:26;;;;;;;7.28;1.70;;;16.40;99.90;;;;;;5049754;28;20051;-69
2022/07/29 06:45:52;;;;;;;2.55;0.90;;;16.40;99.90;;;;;;5040813;28;20053;-69
2022/07/29 06:48:18;;;;;;;3.55;1.52;;;16.40;99.90;;;;;;5054326;28;20086;-69
2022/07/29 06:50:44;;;;;;;9.15;1.42;;;16.40;99.90;;;;;;5045627;28;20048;-68
2022/07/29 06:53:15;;;;;;;7.90;1.55;;;16.40;99.90;;;;;;5070894;28;20403;-69
2022/07/29 06:55:42;;;;;;;7.10;1.17;;;16.50;99.90;;;;;;5034894;28;20151;-68
2022/07/29 06:58:08;;;;;;;5.20;1.27;;;16.50;99.90;;;;;;5045049;28;20067;-69
2022/07/29 07:00:35;;;;;;;3.67;1.35;;;16.60;99.90;;;;;;5044401;28;20483;-69
2022/07/29 07:03:01;;;;;;;6.10;1.20;;;16.70;99.90;;;;;;5031476;28;20045;-69
2022/07/29 07:05:26;;;;;;;4.10;1.48;;;16.80;99.90;;;;;;5038963;28;20072;-69
2022/07/29 07:07:52;;;;;;;4.57;1.13;;;16.80;99.90;;;;;;5069069;28;20054;-70
2022/07/29 07:10:18;;;;;;;5.97;1.30;;;16.90;99.90;;;;;;5020843;28;20060;-69
2022/07/29 07:12:43;;;;;;;1.95;0.93;;;16.90;99.90;;;;;;5048686;28;20087;-69
2022/07/29 07:15:09;;;;;;;7.40;1.77;;;17.00;99.90;;;;;;5039250;28;20053;-69
2022/07/29 07:17:35;;;;;;;4.53;1.10;;;17.00;99.90;;;;;;5057366;28;20057;-69
2022/07/29 07:20:01;;;;;;;3.95;1.02;;;17.00;99.90;;;;;;5057615;28;20494;-69
2022/07/29 07:22:27;;;;;;;2.67;1.15;;;17.00;99.90;;;;;;5033002;28;20037;-69
2022/07/29 07:24:52;;;;;;;3.55;1.02;;;17.00;99.90;;;;;;5051576;28;20056;-69
2022/07/29 07:27:18;;;;;;;6.50;1.30;;;17.10;99.90;;;;;;5043359;28;20094;-69
2022/07/29 07:29:44;;;;;;;3.30;1.38;;;17.10;99.80;;;;;;5033804;28;20128;-69
2022/07/29 07:32:09;;;;;;;8.50;1.50;;;17.20;99.90;;;;;;5068325;28;20063;-69
2022/07/29 07:34:35;;;;;;;2.92;1.60;;;17.20;99.90;;;;;;5067841;28;20057;-69
2022/07/29 07:37:01;;;;;;;3.00;1.38;;;17.30;97.40;;;;;;5046410;28;20501;-68
2022/07/29 07:39:26;;;;;;;3.85;1.50;;;17.30;99.90;;;;;;5056361;28;20564;-69
2022/07/29 07:41:52;;;;;;;8.27;1.40;;;17.40;99.90;;;;;;5066331;28;20368;-69
2022/07/29 07:44:18;;;;;;;3.30;1.17;;;17.40;99.40;;;;;;5045562;28;20040;-68
2022/07/29 07:46:44;;;;;;;3.88;1.10;;;17.40;99.90;;;;;;5045543;28;20048;-69
2022/07/29 07:49:10;;;;;;;5.03;1.15;;;17.60;99.00;;;;;;5068090;28;20051;-68
2022/07/29 07:51:42;;;;;;;4.50;1.10;;;17.60;98.40;;;;;;5045108;28;20129;-70
2022/07/29 07:54:08;;;;;;;6.28;1.20;;;17.60;94.80;;;;;;5068842;28;20091;-68
2022/07/29 07:56:33;;;;;;;4.93;1.20;;;17.60;95.90;;;;;;5062360;28;20439;-69
2022/07/29 07:58:59;;;;;;;4.57;1.17;;;17.60;99.90;;;;;;5068853;28;20064;-68
2022/07/29 08:01:33;;;;;;;4.13;1.15;;;17.70;99.90;;;;;;5034308;28;20036;-68
2022/07/29 08:03:59;;;;;;;3.60;1.17;;;17.70;96.70;;;;;;5051479;28;20125;-69
2022/07/29 08:06:25;;;;;;;4.82;1.20;;;17.80;95.90;;;;;;5060247;28;20037;-68
2022/07/29 08:08:51;;;;;;;6.20;1.30;;;17.80;97.10;;;;;;5058738;28;20036;-69
2022/07/29 08:11:16;;;;;;;2.58;1.05;;;17.80;95.20;;;;;;5040807;28;20123;-69
2022/07/29 08:13:42;;;;;;;3.83;1.33;;;17.90;97.90;;;;;;5019426;28;20049;-68
2022/07/29 08:16:14;;;;;;;4.13;1.13;;;18.00;96.20;;;;;;5057383;28;20410;-69
2022/07/29 08:18:42;;;;;;;2.05;1.20;;;18.00;95.00;;;;;;5039789;28;20048;-69
2022/07/29 08:21:08;;;;;;;3.42;1.30;;;18.10;96.00;;;;;;5037497;28;20067;-69
2022/07/29 08:23:44;;;;;;;3.50;1.58;;;18.10;96.30;;;;;;5059891;28;20037;-68
2022/07/29 08:26:10;;;;;;;3.17;1.20;;;18.00;96.00;;;;;;5048124;28;20051;-69
2022/07/29 08:28:38;;;;;;;1.95;1.13;;;18.10;93.40;;;;;;5048365;28;20053;-68
2022/07/29 08:31:05;;;;;;;3.80;1.48;;;18.20;93.40;;;;;;5046650;28;20128;-68
2022/07/29 08:33:32;;;;;;;2.70;1.10;;;18.20;94.60;;;;;;5054076;28;20053;-68
2022/07/29 08:35:58;;;;;;;11.00;1.35;;;18.30;94.70;;;;;;5031128;28;20037;-69
2022/07/29 08:38:25;;;;;;;4.38;1.17;;;18.40;95.60;;;;;;5051539;28;20450;-69
2022/07/29 08:40:52;;;;;;;5.40;1.70;;;18.40;92.70;;;;;;5041182;28;20508;-68
2022/07/29 08:43:19;;;;;;;4.85;1.73;;;18.50;93.30;;;;;;5062091;28;20399;-68
2022/07/29 08:45:49;;;;;;;3.42;1.40;;;18.50;93.40;;;;;;5040353;28;20411;-68
2022/07/29 08:48:18;;;;;;;2.85;1.30;;;18.60;94.60;;;;;;5049332;28;20049;-69
2022/07/29 08:50:45;;;;;;;8.43;1.35;;;18.60;96.90;;;;;;5065918;28;20047;-69
2022/07/29 08:53:13;;;;;;;8.40;1.60;;;18.70;97.40;;;;;;5042517;28;20137;-68
2022/07/29 08:55:48;;;;;;;3.90;1.63;;;18.80;92.90;;;;;;5049715;28;20851;-69
2022/07/29 08:58:15;;;;;;;4.10;1.50;;;19.00;95.30;;;;;;5048660;28;20124;-69
2022/07/29 09:00:44;;;;;;;3.50;1.23;;;19.10;96.50;;;;;;5041115;28;20049;-68
2022/07/29 09:03:14;;;;;;;3.20;1.40;;;19.20;88.20;;;;;;5036110;28;20052;-69
2022/07/29 09:05:45;;;;;;;11.95;2.10;;;19.30;93.30;;;;;;5059485;28;20605;-69
2022/07/29 09:08:13;;;;;;;3.97;1.55;;;19.40;90.50;;;;;;5029421;28;20048;-69
2022/07/29 09:10:39;;;;;;;10.43;1.70;;;19.40;91.10;;;;;;5060083;28;20051;-69
2022/07/29 09:13:05;;;;;;;4.00;1.73;;;19.40;91.50;;;;;;5047649;28;20072;-69
2022/07/29 09:15:31;;;;;;;5.32;2.15;;;19.40;85.80;;;;;;5039167;28;20110;-68
2022/07/29 09:17:58;;;;;;;4.50;1.30;;;19.40;82.30;;;;;;5036963;28;20082;-69
2022/07/29 09:20:25;;;;;;;2.50;1.40;;;19.50;86.00;;;;;;5041228;28;20082;-69
2022/07/29 09:22:53;;;;;;;7.15;2.15;;;19.50;91.90;;;;;;5035083;28;20475;-69
2022/07/29 09:25:35;;;;;;;5.78;1.50;;;19.50;87.30;;;;;;5025395;28;20073;-69
2022/07/29 09:28:18;;;;;;;4.63;1.48;;;19.50;91.50;;;;;;5043367;28;20461;-68
2022/07/29 09:31:00;;;;;;;6.55;1.30;;;19.40;84.50;;;;;;5066196;28;20041;-69
2022/07/29 09:33:34;;;;;;;4.53;1.27;;;19.30;91.00;;;;;;5047328;28;20493;-68
2022/07/29 09:36:04;;;;;;;2.10;1.20;;;19.30;87.20;;;;;;5065478;28;20048;-69
2022/07/29 09:38:31;;;;;;;5.55;1.50;;;19.40;90.40;;;;;;5063674;28;20064;-68
2022/07/29 09:40:58;;;;;;;5.35;1.60;;;19.50;93.40;;;;;;5066504;28;20040;-69
2022/07/29 09:43:24;;;;;;;5.28;1.63;;;19.40;89.20;;;;;;5037723;28;20044;-68
2022/07/29 09:45:50;;;;;;;4.13;1.35;;;19.40;86.50;;;;;;5048774;28;20410;-69
2022/07/29 09:48:21;;;;;;;3.63;1.20;;;19.30;88.30;;;;;;5046421;28;20474;-69
2022/07/29 09:50:49;;;;;;;4.10;1.23;;;19.30;89.80;;;;;;5032672;28;20052;-69
2022/07/29 09:53:35;;;;;;;2.53;1.42;;;19.30;94.20;;;;;;5032483;28;20056;-69
2022/07/29 09:56:02;;;;;;;5.97;1.80;;;19.40;91.00;;;;;;5049365;28;20049;-69
2022/07/29 09:58:28;;;;;;;1.88;1.08;;;19.50;92.60;;;;;;5034062;28;20480;-68
2022/07/29 10:00:55;;;;;;;5.60;1.42;;;19.50;94.90;;;;;;5064921;28;20049;-69
2022/07/29 10:03:22;;;;;;;7.38;1.40;;;19.60;98.30;;;;;;5053972;28;20398;-69
2022/07/29 10:06:08;;;;;;;1.83;1.42;;;19.60;89.80;;;;;;5036340;28;20029;-69
2022/07/29 10:08:34;;;;;;;2.47;1.42;;;19.60;91.00;;;;;;5037980;28;20685;-69
2022/07/29 10:11:13;;;;;;;2.03;1.20;;;19.70;96.30;;;;;;5043059;28;20087;-68
2022/07/29 10:13:40;;;;;;;4.60;1.50;;;19.80;92.20;;;;;;5027386;28;20128;-68
2022/07/29 10:16:06;;;;;;;5.03;1.50;;;19.90;92.70;;;;;;5013582;28;20037;-69
2022/07/29 10:18:32;;;;;;;3.63;1.27;;;20.00;95.60;;;;;;5058319;28;20560;-69
2022/07/29 10:21:00;;;;;;;6.43;1.70;;;20.10;91.50;;;;;;5036450;28;20049;-68
2022/07/29 10:23:28;;;;;;;3.80;1.55;;;20.30;92.30;;;;;;5028733;28;20513;-69
2022/07/29 10:25:54;;;;;;;4.18;1.20;;;20.40;80.40;;;;;;5061301;28;20133;-69
2022/07/29 10:28:20;;;;;;;1.73;1.27;;;20.50;82.00;;;;;;5039361;28;20557;-68
2022/07/29 10:30:48;;;;;;;2.95;1.40;;;20.70;90.50;;;;;;5030072;28;20120;-69
2022/07/29 10:33:37;;;;;;;8.23;1.42;;;20.70;75.80;;;;;;5047251;28;20045;-69
2022/07/29 10:36:34;;;;;;;3.00;1.27;;;20.90;70.70;;;;;;5064808;28;20048;-69
2022/07/29 10:39:24;;;;;;;7.43;1.25;;;20.90;69.50;;;;;;5062826;28;20102;-69
2022/07/29 10:41:56;;;;;;;2.42;1.30;;;20.90;68.90;;;;;;5043875;28;20110;-68
2022/07/29 10:44:23;;;;;;;3.78;1.58;;;20.90;53.70;;;;;;5057363;28;20044;-69
2022/07/29 10:46:50;;;;;;;4.95;1.17;;;20.80;64.70;;;;;;5035828;28;20236;-69
2022/07/29 10:49:21;;;;;;;2.67;1.30;;;20.90;70.90;;;;;;5064663;28;20041;-69
2022/07/29 10:51:50;;;;;;;5.43;1.17;;;20.90;60.40;;;;;;5048061;28;20374;-69
2022/07/29 10:54:38;;;;;;;5.80;1.30;;;20.90;55.70;;;;;;5038889;28;20068;-68
2022/07/29 10:57:19;;;;;;;9.20;1.40;;;20.90;57.70;;;;;;5059273;28;20049;-69
2022/07/29 10:59:50;;;;;;;2.40;1.85;;;20.90;58.20;;;;;;5063649;28;20063;-69
2022/07/29 11:02:35;;;;;;;6.22;1.50;;;21.00;68.50;;;;;;5059085;28;20091;-69
2022/07/29 11:05:03;;;;;;;2.58;1.25;;;21.00;67.10;;;;;;5065975;28;20498;-69
2022/07/29 11:07:29;;;;;;;3.22;1.42;;;21.00;68.30;;;;;;5059646;28;20277;-68
2022/07/29 11:10:13;;;;;;;7.15;1.35;;;21.00;68.60;;;;;;5031137;28;20410;-69
2022/07/29 11:12:38;;;;;;;8.02;1.40;;;21.10;70.70;;;;;;5045538;28;20128;-69
2022/07/29 11:15:06;;;;;;;5.80;1.38;;;21.10;73.60;;;;;;5026723;28;20067;-68
2022/07/29 11:17:54;;;;;;;5.90;1.30;;;21.10;68.10;;;;;;5045532;28;20091;-69
2022/07/29 11:20:41;;;;;;;7.72;1.60;;;21.20;68.80;;;;;;5061671;28;20052;-68
2022/07/29 11:23:27;;;;;;;10.45;2.22;;;21.30;66.20;;;;;;5045966;28;20082;-69
2022/07/29 11:26:21;;;;;;;8.48;1.30;;;21.30;66.70;;;;;;5066905;28;20147;-69
2022/07/29 11:28:49;;;;;;;2.90;1.40;;;21.40;75.40;;;;;;5063110;28;20095;-69
2022/07/29 11:31:19;;;;;;;1.58;1.10;;;21.50;65.80;;;;;;5047857;28;20047;-68
2022/07/29 11:33:45;;;;;;;3.35;1.23;;;21.60;69.30;;;;;;5047064;28;20055;-69
2022/07/29 11:36:12;;;;;;;6.82;1.45;;;21.60;61.60;;;;;;5066948;28;20041;-69
2022/07/29 11:38:39;;;;;;;9.07;1.20;;;21.70;64.40;;;;;;5068564;28;20520;-69
2022/07/29 11:41:19;;;;;;;8.15;1.50;;;21.80;70.40;;;;;;5067708;28;20051;-69
2022/07/29 11:44:00;;;;;;;6.68;1.60;;;21.90;67.60;;;;;;5062913;28;20136;-69
2022/07/29 11:46:41;;;;;;;9.70;1.92;;;22.00;61.30;;;;;;5068633;28;20040;-69
2022/07/29 11:49:08;;;;;;;9.82;1.35;;;21.90;56.60;;;;;;5049485;28;20036;-68
2022/07/29 11:51:39;;;;;;;4.18;1.50;;;22.00;61.90;;;;;;5048789;28;20049;-68
2022/07/29 11:54:05;;;;;;;6.05;1.27;;;22.00;64.90;;;;;;5067665;28;20050;-68
2022/07/29 11:56:32;;;;;;;1.55;1.23;;;22.10;59.60;;;;;;5048112;28;20068;-69
2022/07/29 11:59:06;;;;;;;4.68;1.30;;;22.10;71.60;;;;;;5067593;28;20239;-68
2022/07/29 12:01:32;;;;;;;6.55;1.17;;;22.20;59.90;;;;;;5047534;28;20948;-69
2022/07/29 12:04:07;;;;;;;7.47;1.60;;;22.20;45.40;;;;;;5051129;28;20049;-69
2022/07/29 12:06:34;;;;;;;7.78;1.40;;;22.30;45.90;;;;;;5067290;28;20045;-68
2022/07/29 12:09:06;;;;;;;5.15;1.25;;;22.30;33.20;;;;;;5044400;28;20040;-69
2022/07/29 12:11:31;;;;;;;4.10;1.27;;;22.30;54.60;;;;;;5044303;28;20033;-69
2022/07/29 12:13:57;;;;;;;4.22;0.98;;;22.40;40.60;;;;;;5050206;28;20060;-69
2022/07/29 12:16:34;;;;;;;5.35;1.90;;;22.40;44.30;;;;;;5050921;28;20056;-69
2022/07/29 12:19:03;;;;;;;6.53;1.30;;;22.50;52.10;;;;;;5049924;28;20048;-69
2022/07/29 12:21:50;;;;;;;9.40;1.67;;;22.60;44.70;;;;;;5064766;28;20048;-69
2022/07/29 12:24:16;;;;;;;5.50;1.10;;;22.60;30.80;;;;;;5066274;28;20151;-68
2022/07/29 12:26:57;;;;;;;9.88;1.85;;;22.70;53.80;;;;;;5051296;28;20090;-68
2022/07/29 12:29:24;;;;;;;2.88;1.45;;;22.70;50.80;;;;;;5035013;28;20110;-68
2022/07/29 12:31:54;;;;;;;3.92;1.48;;;22.80;53.30;;;;;;5038854;28;20506;-68
2022/07/29 12:34:23;;;;;;;3.42;1.50;;;22.90;45.60;;;;;;5049782;28;20052;-68
2022/07/29 12:36:49;;;;;;;;;;;22.90;40.60;;;;;;5037482;28;20060;-68
2022/07/29 12:39:18;;;;;;;5.18;1.20;;;22.80;32.40;;;;;;5041762;28;19921;-68
2022/07/29 12:41:44;;;;;;;8.27;1.35;;;22.80;48.60;;;;;;5065476;28;20555;-69
2022/07/29 12:44:11;;;;;;;3.00;1.00;;;22.80;38.20;;;;;;5068099;28;20036;-68
2022/07/29 12:46:37;;;;;;;3.50;1.33;;;22.80;50.10;;;;;;5046245;28;20518;-68
2022/07/29 12:49:04;;;;;;;5.13;1.25;;;22.80;27.80;;;;;;5032564;28;20048;-68
2022/07/29 12:51:32;;;;;;;4.97;1.52;;;22.80;38.70;;;;;;5067811;28;20131;-68
2022/07/29 12:54:14;;;;;;;4.27;1.13;;;22.90;32.30;;;;;;5066006;28;20770;-68
2022/07/29 12:56:41;;;;;;;4.07;1.35;;;22.90;41.30;;;;;;5067306;28;20060;-68
2022/07/29 12:59:17;;;;;;;6.25;1.63;;;23.00;43.90;;;;;;5066130;28;20056;-68